Time;durP1;ratioP1;P1;durP2;ratioP2;P2;SDS_P1;SDS_P2;PMS_P1;PMS_P2;Temp;Humidity;BMP_temperature;BMP_pressure;BME280_temperature;BME280_humidity;BME280_pressure;Samples;Min_cycle;Max_cycle;Signal;HPM_P1;HPM_P2
2023/05/06 00:01:37;;;;;;;4.03;2.20;;;24.80;48.60;;;;;;5041122;28;20035;-68
2023/05/06 00:04:03;;;;;;;4.60;2.20;;;24.80;48.60;;;;;;5040472;28;20031;-67
2023/05/06 00:06:29;;;;;;;4.57;2.30;;;24.80;48.60;;;;;;5041920;28;20021;-68
2023/05/06 00:08:55;;;;;;;4.22;1.95;;;24.80;48.60;;;;;;5042391;28;20185;-67
2023/05/06 00:11:20;;;;;;;4.55;2.28;;;24.80;48.70;;;;;;5040007;28;20029;-67
2023/05/06 00:13:46;;;;;;;3.90;2.10;;;24.80;48.70;;;;;;5041585;28;20029;-68
2023/05/06 00:16:11;;;;;;;4.88;2.40;;;24.80;48.70;;;;;;5039218;28;20037;-68
2023/05/06 00:18:37;;;;;;;4.70;2.10;;;24.80;48.70;;;;;;5039663;28;20508;-68
2023/05/06 00:21:03;;;;;;;4.47;2.20;;;24.80;48.70;;;;;;5039236;28;20423;-68
2023/05/06 00:23:28;;;;;;;4.22;2.17;;;24.80;48.70;;;;;;5039069;28;20116;-68
2023/05/06 00:25:54;;;;;;;4.20;1.92;;;24.70;48.70;;;;;;5038602;28;20026;-69
2023/05/06 00:28:20;;;;;;;3.95;1.95;;;24.70;48.70;;;;;;5041146;28;20029;-68
2023/05/06 00:30:45;;;;;;;4.22;2.40;;;24.70;48.70;;;;;;5038701;28;20036;-68
2023/05/06 00:33:11;;;;;;;4.05;2.10;;;24.70;48.80;;;;;;5038788;28;20722;-69
2023/05/06 00:35:36;;;;;;;3.67;1.90;;;24.70;48.80;;;;;;5040227;28;20037;-68
2023/05/06 00:38:07;;;;;;;3.83;2.10;;;24.70;48.80;;;;;;5041649;28;20029;-68
2023/05/06 00:40:33;;;;;;;3.78;2.13;;;24.70;48.80;;;;;;5038666;28;20037;-68
2023/05/06 00:42:58;;;;;;;3.33;1.67;;;24.60;48.80;;;;;;5038874;28;20038;-69
2023/05/06 00:45:24;;;;;;;2.97;1.77;;;24.60;48.80;;;;;;5038504;28;20541;-68
2023/05/06 00:47:51;;;;;;;3.70;1.90;;;24.60;48.80;;;;;;5037906;28;20330;-68
2023/05/06 00:50:17;;;;;;;3.42;2.00;;;24.60;48.80;;;;;;5040176;28;20060;-68
2023/05/06 00:52:42;;;;;;;3.83;1.88;;;24.60;48.80;;;;;;5035801;28;20036;-69
2023/05/06 00:55:08;;;;;;;3.85;1.90;;;24.60;48.90;;;;;;5038984;28;20033;-68
2023/05/06 00:57:34;;;;;;;4.18;1.80;;;24.60;48.90;;;;;;5038709;28;20036;-69
2023/05/06 01:00:00;;;;;;;3.08;1.70;;;24.50;48.90;;;;;;5038109;28;20335;-69
2023/05/06 01:02:25;;;;;;;3.00;1.70;;;24.50;48.90;;;;;;5040516;28;20462;-68
2023/05/06 01:04:54;;;;;;;3.13;1.55;;;24.50;48.90;;;;;;5042039;28;20033;-68
2023/05/06 01:07:29;;;;;;;3.67;2.00;;;24.50;48.90;;;;;;5040752;28;20037;-68
2023/05/06 01:10:04;;;;;;;3.60;1.75;;;24.50;48.90;;;;;;5037790;28;20319;-68
2023/05/06 01:12:36;;;;;;;3.38;1.70;;;24.50;48.90;;;;;;5042277;28;20392;-69
2023/05/06 01:15:10;;;;;;;4.00;1.90;;;24.50;48.90;;;;;;5039280;28;20037;-68
2023/05/06 01:17:41;;;;;;;3.97;1.80;;;24.50;48.90;;;;;;5041602;28;20078;-65
2023/05/06 01:20:10;;;;;;;3.63;1.75;;;24.50;48.90;;;;;;5037492;28;20068;-68
2023/05/06 01:22:37;;;;;;;2.97;1.70;;;24.50;49.00;;;;;;5036979;28;20544;-68
2023/05/06 01:25:04;;;;;;;2.95;1.70;;;24.50;49.00;;;;;;5039051;28;20025;-68
2023/05/06 01:27:29;;;;;;;2.92;1.40;;;24.50;49.00;;;;;;5040106;28;20124;-68
2023/05/06 01:29:56;;;;;;;3.28;1.70;;;24.40;49.00;;;;;;5038458;28;20576;-68
2023/05/06 01:32:41;;;;;;;4.18;1.50;;;24.40;49.00;;;;;;5038021;28;20178;-68
2023/05/06 01:35:18;;;;;;;2.90;1.50;;;24.40;49.00;;;;;;5039101;28;20472;-68
2023/05/06 01:37:58;;;;;;;3.25;1.70;;;24.40;49.00;;;;;;5039472;28;20117;-67
2023/05/06 01:40:26;;;;;;;2.60;1.58;;;24.40;49.00;;;;;;5038143;28;20450;-68
2023/05/06 01:42:53;;;;;;;3.40;1.80;;;24.40;49.00;;;;;;5038898;28;20025;-68
2023/05/06 01:45:20;;;;;;;3.05;1.60;;;24.40;49.00;;;;;;5038426;28;20100;-67
2023/05/06 01:47:46;;;;;;;3.08;1.73;;;24.40;49.00;;;;;;5038659;28;20114;-68
2023/05/06 01:50:12;;;;;;;3.28;1.60;;;24.30;49.00;;;;;;5037979;28;20037;-68
2023/05/06 01:52:38;;;;;;;2.58;1.48;;;24.40;49.10;;;;;;5037751;28;20392;-68
2023/05/06 01:55:04;;;;;;;3.00;1.60;;;24.30;49.00;;;;;;5035469;28;20104;-68
2023/05/06 01:57:29;;;;;;;2.70;1.55;;;24.30;49.00;;;;;;5039419;28;20454;-67
2023/05/06 01:59:55;;;;;;;3.42;1.50;;;24.30;49.10;;;;;;5041362;28;20116;-68
2023/05/06 02:02:21;;;;;;;3.53;1.60;;;24.30;49.00;;;;;;5035232;28;20056;-67
2023/05/06 02:04:46;;;;;;;2.85;1.60;;;24.30;49.00;;;;;;5037478;28;20028;-69
2023/05/06 02:07:12;;;;;;;2.80;1.60;;;24.30;49.10;;;;;;5037783;28;20100;-68
2023/05/06 02:09:37;;;;;;;2.95;1.60;;;24.30;49.10;;;;;;5036926;28;20083;-68
2023/05/06 02:12:03;;;;;;;4.15;1.80;;;24.30;49.10;;;;;;5036624;28;20165;-68
2023/05/06 02:14:29;;;;;;;2.30;1.40;;;24.30;49.00;;;;;;5039528;28;20033;-68
2023/05/06 02:16:54;;;;;;;3.08;1.50;;;24.30;49.10;;;;;;5040258;28;20068;-68
2023/05/06 02:19:20;;;;;;;2.58;1.40;;;24.30;49.10;;;;;;5040594;28;20049;-68
2023/05/06 02:21:46;;;;;;;2.97;1.70;;;24.30;49.10;;;;;;5037762;28;20036;-68
2023/05/06 02:24:11;;;;;;;3.22;1.60;;;24.30;49.10;;;;;;5037038;28;20393;-68
2023/05/06 02:26:37;;;;;;;3.10;1.52;;;24.20;49.00;;;;;;5039200;28;20136;-68
2023/05/06 02:29:02;;;;;;;3.88;1.88;;;24.20;49.00;;;;;;5038455;28;20064;-67
2023/05/06 02:31:28;;;;;;;3.05;1.55;;;24.20;49.10;;;;;;5036765;28;20567;-68
2023/05/06 02:33:54;;;;;;;2.95;1.50;;;24.20;49.10;;;;;;5038197;28;20036;-67
2023/05/06 02:36:19;;;;;;;2.80;1.45;;;24.20;49.10;;;;;;5037486;28;20354;-67
2023/05/06 02:38:45;;;;;;;2.38;1.40;;;24.20;49.10;;;;;;5035939;28;20124;-68
2023/05/06 02:41:11;;;;;;;3.08;1.70;;;24.20;49.10;;;;;;5034562;28;20519;-68
2023/05/06 02:43:36;;;;;;;3.08;1.50;;;24.20;49.00;;;;;;5036410;28;20028;-67
2023/05/06 02:46:02;;;;;;;3.13;1.73;;;24.20;49.10;;;;;;5037540;28;20029;-67
2023/05/06 02:48:28;;;;;;;3.03;1.70;;;24.20;49.10;;;;;;5039102;28;20548;-68
2023/05/06 02:50:53;;;;;;;2.80;1.60;;;24.20;49.10;;;;;;5038512;28;20025;-69
2023/05/06 02:53:19;;;;;;;3.25;1.80;;;24.20;49.10;;;;;;5039214;28;20036;-67
2023/05/06 02:55:44;;;;;;;2.95;1.45;;;24.20;49.10;;;;;;5036246;28;20033;-67
2023/05/06 02:58:10;;;;;;;3.20;1.42;;;24.10;49.10;;;;;;5037346;28;20123;-67
2023/05/06 03:00:35;;;;;;;2.88;1.42;;;24.10;49.10;;;;;;5037779;28;20102;-67
2023/05/06 03:03:01;;;;;;;2.90;1.60;;;24.10;49.10;;;;;;5036878;28;20032;-68
2023/05/06 03:05:27;;;;;;;2.17;1.40;;;24.10;49.10;;;;;;5039764;28;20088;-67
2023/05/06 03:07:52;;;;;;;2.70;1.42;;;24.10;49.10;;;;;;5040134;28;20032;-67
2023/05/06 03:10:18;;;;;;;2.47;1.52;;;24.10;49.10;;;;;;5034439;28;20132;-68
2023/05/06 03:12:43;;;;;;;2.50;1.50;;;24.10;49.10;;;;;;5034563;28;20508;-67
2023/05/06 03:15:10;;;;;;;2.63;1.40;;;24.10;49.10;;;;;;5040059;28;20033;-68
2023/05/06 03:17:36;;;;;;;2.40;1.40;;;24.10;49.10;;;;;;5038384;28;20029;-68
2023/05/06 03:20:02;;;;;;;2.95;1.60;;;24.10;49.10;;;;;;5039427;28;20112;-68
2023/05/06 03:22:28;;;;;;;2.63;1.30;;;24.10;49.10;;;;;;5041376;28;20049;-66
2023/05/06 03:24:53;;;;;;;2.50;1.50;;;24.10;49.10;;;;;;5035862;28;20030;-67
2023/05/06 03:27:19;;;;;;;2.47;1.30;;;24.10;49.10;;;;;;5041786;28;20025;-67
2023/05/06 03:29:44;;;;;;;3.10;1.77;;;24.10;49.10;;;;;;5035614;28;20103;-68
2023/05/06 03:32:10;;;;;;;2.45;1.30;;;24.00;49.10;;;;;;5038504;28;20033;-68
2023/05/06 03:34:36;;;;;;;2.85;1.50;;;24.00;49.10;;;;;;5041190;28;20029;-68
2023/05/06 03:37:01;;;;;;;2.70;1.58;;;24.00;49.10;;;;;;5037404;28;20040;-68
2023/05/06 03:39:27;;;;;;;2.70;1.60;;;24.00;49.10;;;;;;5036717;28;20029;-68
2023/05/06 03:41:53;;;;;;;1.98;1.13;;;24.00;49.10;;;;;;5037247;28;20120;-68
2023/05/06 03:44:18;;;;;;;3.00;1.58;;;24.00;49.10;;;;;;5037018;28;20023;-67
2023/05/06 03:46:44;;;;;;;2.22;1.40;;;24.00;49.10;;;;;;5037304;28;20041;-68
2023/05/06 03:49:09;;;;;;;2.35;1.27;;;24.00;49.10;;;;;;5038802;28;20032;-67
2023/05/06 03:51:35;;;;;;;2.60;1.25;;;24.00;49.10;;;;;;5039785;28;20384;-67
2023/05/06 03:54:01;;;;;;;2.80;1.38;;;24.00;49.20;;;;;;5038536;28;20033;-67
2023/05/06 03:56:26;;;;;;;2.83;1.27;;;23.90;49.10;;;;;;5039930;28;20034;-68
2023/05/06 03:58:53;;;;;;;2.95;1.67;;;24.00;49.20;;;;;;5048212;28;20025;-67
2023/05/06 04:01:19;;;;;;;2.35;1.42;;;24.00;49.20;;;;;;5040624;28;20048;-68
2023/05/06 04:03:44;;;;;;;2.80;1.33;;;24.00;49.10;;;;;;5039892;28;20076;-69
2023/05/06 04:06:10;;;;;;;2.88;1.40;;;23.90;49.10;;;;;;5039315;28;20509;-67
2023/05/06 04:08:36;;;;;;;2.58;1.50;;;23.90;49.10;;;;;;5042215;28;20018;-68
2023/05/06 04:11:05;;;;;;;2.55;1.42;;;23.90;49.10;;;;;;5040442;28;20116;-68
2023/05/06 04:13:32;;;;;;;2.60;1.40;;;23.90;49.20;;;;;;5040157;28;20500;-68
2023/05/06 04:15:58;;;;;;;2.55;1.20;;;23.90;49.20;;;;;;5038995;28;20040;-68
2023/05/06 04:18:24;;;;;;;3.00;1.38;;;23.90;49.20;;;;;;5038036;28;20025;-67
2023/05/06 04:20:49;;;;;;;2.40;1.20;;;23.90;49.20;;;;;;5039762;28;20095;-68
2023/05/06 04:23:15;;;;;;;2.22;1.20;;;23.90;49.20;;;;;;5041072;28;20358;-67
2023/05/06 04:25:41;;;;;;;2.53;1.38;;;23.90;49.20;;;;;;5040381;28;20036;-68
2023/05/06 04:28:08;;;;;;;2.60;1.30;;;23.90;49.20;;;;;;5039866;28;20025;-68
2023/05/06 04:30:34;;;;;;;2.40;1.30;;;23.90;49.30;;;;;;5040379;28;20037;-68
2023/05/06 04:33:01;;;;;;;2.00;1.23;;;23.90;49.20;;;;;;5039766;28;20041;-68
2023/05/06 04:35:27;;;;;;;2.38;1.40;;;23.90;49.20;;;;;;5041862;28;20016;-68
2023/05/06 04:37:52;;;;;;;2.20;1.40;;;23.90;49.20;;;;;;5043942;28;20496;-68
2023/05/06 04:40:18;;;;;;;2.70;1.50;;;23.90;49.20;;;;;;5039037;28;20040;-68
2023/05/06 04:42:44;;;;;;;2.00;1.30;;;23.90;49.20;;;;;;5040078;28;20587;-68
2023/05/06 04:45:10;;;;;;;2.80;1.40;;;23.90;49.20;;;;;;5034746;28;20140;-68
2023/05/06 04:47:36;;;;;;;2.40;1.40;;;23.90;49.20;;;;;;5037319;28;20562;-68
2023/05/06 04:50:03;;;;;;;2.42;1.25;;;23.90;49.20;;;;;;5036602;28;20025;-68
2023/05/06 04:52:29;;;;;;;2.67;1.40;;;23.90;49.30;;;;;;5039747;28;20036;-68
2023/05/06 04:54:54;;;;;;;2.30;1.40;;;23.80;49.20;;;;;;5037941;28;20116;-68
2023/05/06 04:57:20;;;;;;;3.13;1.55;;;23.80;49.20;;;;;;5037851;28;20025;-68
2023/05/06 04:59:45;;;;;;;3.42;1.40;;;23.80;49.20;;;;;;5038227;28;20124;-69
2023/05/06 05:02:11;;;;;;;2.55;1.42;;;23.80;49.20;;;;;;5038119;28;20033;-68
2023/05/06 05:04:37;;;;;;;2.25;1.30;;;23.80;49.20;;;;;;5041158;28;20033;-67
2023/05/06 05:07:02;;;;;;;2.47;1.38;;;23.80;49.20;;;;;;5038290;28;20024;-67
2023/05/06 05:09:28;;;;;;;2.78;1.30;;;23.80;49.30;;;;;;5039304;28;20036;-65
2023/05/06 05:11:53;;;;;;;1.92;1.17;;;23.80;49.30;;;;;;5037679;28;20108;-65
2023/05/06 05:14:20;;;;;;;1.85;1.23;;;23.80;49.20;;;;;;5037846;28;20030;-65
2023/05/06 05:16:45;;;;;;;2.65;1.50;;;23.80;49.20;;;;;;5038816;28;20029;-65
2023/05/06 05:19:11;;;;;;;2.13;1.40;;;23.80;49.20;;;;;;5040518;28;20022;-65
2023/05/06 05:21:37;;;;;;;2.33;1.30;;;23.80;49.20;;;;;;5037154;28;20453;-65
2023/05/06 05:24:03;;;;;;;2.17;1.33;;;23.80;49.30;;;;;;5040430;28;20052;-65
2023/05/06 05:26:29;;;;;;;2.83;1.35;;;23.80;49.30;;;;;;5035244;28;20086;-65
2023/05/06 05:28:54;;;;;;;2.00;1.30;;;23.80;49.30;;;;;;5037730;28;20059;-65
2023/05/06 05:31:20;;;;;;;1.92;1.20;;;23.70;49.20;;;;;;5039456;28;20053;-67
2023/05/06 05:33:46;;;;;;;2.10;1.23;;;23.70;49.30;;;;;;5038788;28;20021;-67
2023/05/06 05:36:14;;;;;;;2.17;1.17;;;23.70;49.30;;;;;;5039374;28;20431;-67
2023/05/06 05:38:40;;;;;;;2.40;1.30;;;23.70;49.30;;;;;;5039673;28;20054;-67
2023/05/06 05:41:05;;;;;;;2.67;1.40;;;23.70;49.30;;;;;;5038962;28;20453;-67
2023/05/06 05:43:31;;;;;;;2.67;1.40;;;23.70;49.30;;;;;;5040218;28;20085;-67
2023/05/06 05:45:57;;;;;;;1.90;1.20;;;23.70;49.30;;;;;;5037958;28;20044;-67
2023/05/06 05:48:23;;;;;;;2.40;1.48;;;23.70;49.30;;;;;;5040078;28;20068;-66
2023/05/06 05:50:48;;;;;;;1.77;1.20;;;23.70;49.30;;;;;;5039412;28;20025;-65
2023/05/06 05:53:14;;;;;;;2.20;1.20;;;23.70;49.30;;;;;;5039513;28;20031;-67
2023/05/06 05:55:40;;;;;;;2.28;1.40;;;23.70;49.30;;;;;;5036255;28;20032;-67
2023/05/06 05:58:05;;;;;;;2.83;1.30;;;23.70;49.30;;;;;;5038932;28;20501;-66
2023/05/06 06:00:31;;;;;;;2.83;1.30;;;23.70;49.30;;;;;;5037062;28;20041;-67
2023/05/06 06:02:57;;;;;;;3.65;1.50;;;23.70;49.30;;;;;;5039248;28;20043;-67
2023/05/06 06:05:22;;;;;;;2.47;1.52;;;23.70;49.30;;;;;;5035672;28;20108;-67
2023/05/06 06:07:48;;;;;;;2.45;1.40;;;23.70;49.30;;;;;;5036456;28;20045;-66
2023/05/06 06:10:14;;;;;;;3.28;1.40;;;23.70;49.40;;;;;;5037043;28;20048;-65
2023/05/06 06:12:40;;;;;;;2.25;1.30;;;23.70;49.30;;;;;;5035502;28;20033;-67
2023/05/06 06:15:06;;;;;;;2.60;1.52;;;23.70;49.30;;;;;;5038893;28;20046;-66
2023/05/06 06:17:32;;;;;;;2.20;1.17;;;23.70;49.30;;;;;;5039513;28;20026;-67
2023/05/06 06:19:58;;;;;;;2.47;1.30;;;23.70;49.30;;;;;;5036656;28;20033;-67
2023/05/06 06:22:23;;;;;;;2.17;1.33;;;23.70;49.40;;;;;;5044161;28;20025;-67
2023/05/06 06:24:50;;;;;;;2.22;1.10;;;23.60;49.30;;;;;;5036356;28;20040;-67
2023/05/06 06:27:16;;;;;;;1.77;1.17;;;23.70;49.40;;;;;;5034875;28;20377;-67
2023/05/06 06:29:41;;;;;;;1.55;1.13;;;23.70;49.40;;;;;;5035035;28;20029;-67
2023/05/06 06:32:07;;;;;;;2.20;1.30;;;23.60;49.30;;;;;;5039000;28;20462;-66
2023/05/06 06:34:32;;;;;;;2.88;1.40;;;23.60;49.30;;;;;;5036159;28;20393;-66
2023/05/06 06:36:58;;;;;;;1.90;1.20;;;23.60;49.80;;;;;;5035604;28;20161;-67
2023/05/06 06:39:24;;;;;;;2.47;1.42;;;23.60;49.30;;;;;;5038783;28;20025;-67
2023/05/06 06:41:49;;;;;;;1.92;1.13;;;23.70;49.40;;;;;;5037706;28;20410;-67
2023/05/06 06:44:15;;;;;;;1.92;1.30;;;23.60;49.30;;;;;;5037335;28;20036;-67
2023/05/06 06:46:41;;;;;;;1.88;1.20;;;23.60;49.30;;;;;;5036673;28;20026;-67
2023/05/06 06:49:07;;;;;;;2.40;1.30;;;23.60;49.40;;;;;;5039170;28;20480;-67
2023/05/06 06:51:32;;;;;;;1.92;1.10;;;23.60;49.40;;;;;;5035802;28;20065;-67
2023/05/06 06:53:58;;;;;;;1.80;1.20;;;23.60;49.40;;;;;;5038266;28;20036;-66
2023/05/06 06:56:23;;;;;;;2.85;1.33;;;23.60;49.40;;;;;;5036064;28;20380;-66
2023/05/06 06:58:49;;;;;;;2.63;1.20;;;23.60;49.40;;;;;;5035611;28;20064;-66
2023/05/06 07:01:15;;;;;;;3.15;1.35;;;23.60;49.40;;;;;;5036089;28;20022;-66
2023/05/06 07:03:40;;;;;;;2.15;1.20;;;23.60;49.40;;;;;;5036975;28;20113;-67
2023/05/06 07:06:07;;;;;;;1.95;1.20;;;23.60;49.40;;;;;;5034917;28;20386;-66
2023/05/06 07:08:33;;;;;;;2.05;1.30;;;23.60;49.40;;;;;;5039974;28;20051;-64
2023/05/06 07:10:58;;;;;;;1.98;1.10;;;23.60;49.40;;;;;;5036600;28;20033;-64
2023/05/06 07:13:24;;;;;;;2.10;1.10;;;23.60;50.10;;;;;;5035830;28;20091;-65
2023/05/06 07:15:49;;;;;;;1.58;1.10;;;23.60;49.50;;;;;;5040375;28;20065;-64
2023/05/06 07:18:15;;;;;;;2.45;1.25;;;23.50;49.50;;;;;;5035634;28;20488;-64
2023/05/06 07:20:41;;;;;;;1.98;1.20;;;23.60;49.60;;;;;;5035850;28;20093;-64
2023/05/06 07:23:06;;;;;;;1.98;1.20;;;23.50;49.50;;;;;;5036873;28;20048;-64
2023/05/06 07:25:32;;;;;;;1.90;1.17;;;23.50;49.50;;;;;;5036379;28;20029;-65
2023/05/06 07:27:58;;;;;;;2.03;1.30;;;23.50;49.50;;;;;;5046929;28;20017;-64
2023/05/06 07:30:23;;;;;;;1.70;1.10;;;23.60;49.60;;;;;;5038899;28;20021;-64
2023/05/06 07:32:49;;;;;;;2.47;1.38;;;23.60;49.60;;;;;;5040695;28;20087;-64
2023/05/06 07:35:15;;;;;;;1.75;1.10;;;23.50;49.60;;;;;;5041000;28;20029;-64
2023/05/06 07:37:41;;;;;;;1.98;1.08;;;23.50;49.70;;;;;;5040990;28;20021;-64
2023/05/06 07:40:07;;;;;;;1.50;1.00;;;23.50;49.60;;;;;;5038337;28;20462;-66
2023/05/06 07:42:33;;;;;;;1.88;1.17;;;23.50;49.60;;;;;;5041267;28;20033;-66
2023/05/06 07:44:58;;;;;;;1.92;1.10;;;23.50;49.70;;;;;;5041632;28;20043;-66
2023/05/06 07:47:30;;;;;;;2.45;1.10;;;23.50;49.60;;;;;;5042735;28;20025;-66
2023/05/06 07:49:55;;;;;;;1.83;1.20;;;23.50;49.70;;;;;;5041197;28;20331;-66
2023/05/06 07:52:22;;;;;;;1.13;0.90;;;23.50;49.70;;;;;;5039655;28;20037;-67
2023/05/06 07:54:48;;;;;;;1.98;1.17;;;23.50;49.70;;;;;;5040543;28;20048;-66
2023/05/06 07:57:14;;;;;;;1.73;1.10;;;23.50;49.70;;;;;;5038967;28;20025;-66
2023/05/06 07:59:41;;;;;;;1.52;1.05;;;23.50;49.70;;;;;;5038286;28;20129;-66
2023/05/06 08:02:06;;;;;;;1.95;0.95;;;23.50;49.70;;;;;;5038687;28;20033;-66
2023/05/06 08:04:32;;;;;;;1.40;0.98;;;23.50;49.70;;;;;;5039768;28;20044;-66
2023/05/06 08:06:57;;;;;;;1.55;1.00;;;23.50;49.70;;;;;;5039038;28;20028;-66
2023/05/06 08:09:23;;;;;;;1.70;1.00;;;23.50;49.70;;;;;;5040629;28;20028;-66
2023/05/06 08:11:49;;;;;;;1.90;1.02;;;23.50;49.80;;;;;;5038244;28;20053;-66
2023/05/06 08:14:15;;;;;;;1.80;1.10;;;23.50;49.80;;;;;;5039768;28;20472;-66
2023/05/06 08:16:40;;;;;;;1.63;0.98;;;23.50;49.80;;;;;;5040687;28;20033;-66
2023/05/06 08:19:06;;;;;;;2.00;1.10;;;23.50;49.80;;;;;;5037097;28;20097;-66
2023/05/06 08:21:31;;;;;;;1.60;1.10;;;23.50;49.80;;;;;;5041203;28;20535;-66
2023/05/06 08:23:57;;;;;;;2.13;1.10;;;23.50;49.80;;;;;;5041978;28;20037;-66
2023/05/06 08:26:23;;;;;;;1.45;1.10;;;23.50;49.80;;;;;;5038027;28;20062;-66
2023/05/06 08:28:48;;;;;;;1.23;0.80;;;23.50;49.80;;;;;;5039778;28;20037;-66
2023/05/06 08:31:14;;;;;;;1.35;0.98;;;23.50;49.80;;;;;;5040492;28;20112;-66
2023/05/06 08:33:39;;;;;;;1.55;1.00;;;23.50;49.70;;;;;;5035736;28;20033;-65
2023/05/06 08:36:05;;;;;;;1.30;1.00;;;23.50;49.80;;;;;;5042872;28;20025;-67
2023/05/06 08:38:31;;;;;;;1.10;0.93;;;23.50;49.70;;;;;;5039347;28;20029;-67
2023/05/06 08:41:02;;;;;;;1.60;1.05;;;23.50;49.70;;;;;;5039594;28;20060;-67
2023/05/06 08:43:30;;;;;;;2.13;1.15;;;23.50;49.80;;;;;;5037450;28;20139;-65
2023/05/06 08:45:56;;;;;;;1.50;1.00;;;23.50;49.70;;;;;;5039743;28;20017;-65
2023/05/06 08:48:21;;;;;;;1.25;0.98;;;23.50;49.80;;;;;;5038372;28;20331;-65
2023/05/06 08:50:49;;;;;;;1.60;1.02;;;23.50;49.70;;;;;;5036580;28;20032;-65
2023/05/06 08:53:15;;;;;;;1.38;0.90;;;23.50;49.80;;;;;;5041824;28;20024;-65
2023/05/06 08:55:42;;;;;;;1.45;1.00;;;23.50;49.70;;;;;;5042364;28;20389;-65
2023/05/06 08:58:10;;;;;;;2.05;1.10;;;23.50;49.80;;;;;;5038098;28;20087;-65
2023/05/06 09:00:36;;;;;;;1.42;0.80;;;23.50;49.70;;;;;;5037375;28;20036;-65
2023/05/06 09:03:02;;;;;;;1.30;0.90;;;23.50;49.70;;;;;;5038269;28;20021;-65
2023/05/06 09:05:28;;;;;;;1.10;0.90;;;23.50;49.80;;;;;;5039687;28;20031;-65
2023/05/06 09:07:53;;;;;;;1.00;0.80;;;23.50;49.70;;;;;;5037277;28;20036;-65
2023/05/06 09:10:19;;;;;;;1.65;0.90;;;23.50;49.70;;;;;;5039505;28;20037;-64
2023/05/06 09:12:45;;;;;;;1.45;0.90;;;23.50;49.70;;;;;;5037461;28;20064;-67
2023/05/06 09:15:10;;;;;;;1.38;0.90;;;23.50;49.70;;;;;;5040370;28;20163;-65
2023/05/06 09:17:36;;;;;;;1.27;0.90;;;23.50;49.70;;;;;;5038162;28;20119;-65
2023/05/06 09:20:05;;;;;;;1.63;0.90;;;23.50;49.70;;;;;;5036536;28;20135;-65
2023/05/06 09:22:30;;;;;;;1.55;0.90;;;23.50;49.70;;;;;;5037261;28;20122;-65
2023/05/06 09:24:57;;;;;;;1.33;1.00;;;23.50;49.70;;;;;;5037628;28;20109;-64
2023/05/06 09:27:27;;;;;;;1.40;1.00;;;23.50;49.80;;;;;;5035962;28;20025;-65
2023/05/06 09:30:00;;;;;;;1.48;0.90;;;23.50;49.80;;;;;;5039111;28;20166;-65
2023/05/06 09:32:26;;;;;;;1.58;0.98;;;23.50;49.80;;;;;;5036698;28;20028;-65
2023/05/06 09:34:52;;;;;;;2.30;1.00;;;23.50;49.80;;;;;;5035196;28;20024;-65
2023/05/06 09:37:19;;;;;;;1.30;0.90;;;23.50;49.80;;;;;;5034726;28;20040;-65
2023/05/06 09:39:45;;;;;;;1.38;0.90;;;23.50;49.80;;;;;;5037241;28;20452;-65
2023/05/06 09:42:11;;;;;;;1.27;0.80;;;23.50;49.80;;;;;;5037447;28;20041;-65
2023/05/06 09:44:37;;;;;;;1.40;0.80;;;23.50;49.80;;;;;;5041281;28;20414;-65
2023/05/06 09:47:03;;;;;;;2.05;0.90;;;23.50;49.80;;;;;;5041618;28;20481;-65
2023/05/06 09:49:28;;;;;;;0.98;0.80;;;23.50;49.80;;;;;;5037347;28;20024;-65
2023/05/06 09:51:56;;;;;;;1.58;0.90;;;23.50;49.80;;;;;;5038671;28;20028;-65
2023/05/06 09:54:23;;;;;;;1.40;0.90;;;23.50;49.80;;;;;;5039195;28;20025;-65
2023/05/06 09:56:51;;;;;;;1.00;0.90;;;23.50;49.80;;;;;;5035250;28;20128;-66
2023/05/06 09:59:18;;;;;;;1.40;0.98;;;23.50;49.80;;;;;;5038264;28;20532;-65
2023/05/06 10:01:43;;;;;;;1.02;0.90;;;23.50;49.80;;;;;;5037274;28;20026;-65
2023/05/06 10:04:11;;;;;;;1.10;0.90;;;23.50;49.80;;;;;;5038879;28;20028;-66
2023/05/06 10:06:40;;;;;;;1.35;0.95;;;23.50;50.30;;;;;;5044241;28;20075;-65
2023/05/06 10:09:07;;;;;;;1.63;1.08;;;23.50;49.80;;;;;;5033382;28;20032;-65
2023/05/06 10:11:35;;;;;;;1.50;0.90;;;23.50;49.80;;;;;;5036732;28;20037;-65
2023/05/06 10:14:01;;;;;;;1.65;0.95;;;23.50;49.80;;;;;;5035440;28;20420;-65
2023/05/06 10:16:27;;;;;;;1.40;0.80;;;23.50;49.80;;;;;;5035722;28;20492;-66
2023/05/06 10:18:54;;;;;;;1.58;0.90;;;23.50;49.80;;;;;;5038755;28;20029;-66
2023/05/06 10:21:23;;;;;;;1.00;0.80;;;23.50;49.80;;;;;;5055640;28;20126;-65
2023/05/06 10:24:12;;;;;;;2.28;0.88;;;23.50;49.80;;;;;;5038216;28;20536;-65
2023/05/06 10:26:39;;;;;;;1.40;0.90;;;23.60;50.00;;;;;;5042384;28;20036;-66
2023/05/06 10:29:09;;;;;;;1.13;0.77;;;23.50;49.90;;;;;;5036575;28;20438;-65
2023/05/06 10:31:35;;;;;;;;;;;23.50;50.00;;;;;;5069358;28;20033;-66
2023/05/06 10:34:05;;;;;;;1.95;0.85;;;23.50;50.00;;;;;;5036820;28;19912;-66
2023/05/06 10:36:35;;;;;;;1.60;0.82;;;23.50;50.10;;;;;;5038463;28;20492;-66
2023/05/06 10:39:02;;;;;;;1.27;0.98;;;23.50;50.10;;;;;;5039314;28;20559;-66
2023/05/06 10:41:29;;;;;;;1.23;0.90;;;23.50;50.40;;;;;;5038091;28;20057;-66
2023/05/06 10:43:55;;;;;;;1.88;0.85;;;23.60;50.40;;;;;;5034517;28;20051;-66
2023/05/06 10:46:22;;;;;;;1.40;0.90;;;23.60;50.60;;;;;;5039677;28;20433;-66
2023/05/06 10:49:03;;;;;;;1.02;0.80;;;23.60;50.50;;;;;;5037406;28;20517;-67
2023/05/06 10:51:30;;;;;;;1.17;0.85;;;23.60;50.50;;;;;;5036406;28;20138;-66
2023/05/06 10:54:03;;;;;;;1.30;0.90;;;23.60;50.40;;;;;;5039769;28;20029;-66
2023/05/06 10:56:37;;;;;;;1.33;0.90;;;23.60;50.40;;;;;;5037662;28;20505;-67
2023/05/06 10:59:07;;;;;;;1.13;0.80;;;23.60;50.40;;;;;;5041965;28;20025;-66
2023/05/06 11:01:37;;;;;;;1.00;0.90;;;23.70;50.40;;;;;;5038597;28;20123;-67
2023/05/06 11:04:11;;;;;;;1.38;0.75;;;23.70;50.40;;;;;;5039990;28;20020;-66
2023/05/06 11:06:52;;;;;;;0.98;0.73;;;23.70;50.40;;;;;;5041357;28;20021;-65
2023/05/06 11:09:20;;;;;;;1.55;0.90;;;23.70;50.40;;;;;;5040552;28;20040;-66
2023/05/06 11:11:51;;;;;;;1.75;1.00;;;23.70;50.30;;;;;;5043604;28;20561;-66
2023/05/06 11:14:36;;;;;;;1.52;0.90;;;23.80;50.30;;;;;;5041517;28;20039;-66
2023/05/06 11:17:04;;;;;;;1.45;0.90;;;23.80;50.30;;;;;;5039810;28;20055;-65
2023/05/06 11:19:32;;;;;;;1.25;0.88;;;23.80;50.20;;;;;;5040213;28;20117;-67
2023/05/06 11:21:59;;;;;;;0.95;0.80;;;23.90;50.30;;;;;;5041114;28;20470;-67
2023/05/06 11:24:39;;;;;;;1.58;0.90;;;23.80;50.30;;;;;;5039666;28;20105;-67
2023/05/06 11:27:05;;;;;;;1.17;0.82;;;23.90;50.20;;;;;;5042618;28;20408;-66
2023/05/06 11:29:31;;;;;;;1.48;0.88;;;23.90;50.10;;;;;;5042472;28;20052;-66
2023/05/06 11:31:57;;;;;;;1.33;0.80;;;23.90;50.10;;;;;;5043804;28;20059;-65
2023/05/06 11:34:28;;;;;;;1.70;1.00;;;23.90;50.30;;;;;;5044202;28;20064;-67
2023/05/06 11:37:02;;;;;;;1.23;0.80;;;23.90;50.10;;;;;;5069979;28;20061;-65
2023/05/06 11:39:30;;;;;;;1.05;0.80;;;23.90;50.10;;;;;;5040256;28;20041;-66
2023/05/06 11:42:02;;;;;;;1.45;0.80;;;24.00;50.10;;;;;;5041748;28;20025;-67
2023/05/06 11:44:36;;;;;;;1.02;0.80;;;24.00;50.00;;;;;;5039784;28;20130;-67
2023/05/06 11:47:04;;;;;;;1.00;0.70;;;24.00;50.00;;;;;;5040088;28;20434;-66
2023/05/06 11:49:41;;;;;;;1.00;0.80;;;24.00;50.00;;;;;;5039086;28;20111;-67
2023/05/06 11:52:08;;;;;;;0.82;0.70;;;24.00;49.90;;;;;;5038362;28;20558;-67
2023/05/06 11:54:42;;;;;;;0.80;0.70;;;24.00;49.90;;;;;;5040232;28;20199;-66
2023/05/06 11:57:08;;;;;;;1.80;0.70;;;24.00;49.80;;;;;;5043413;28;20036;-67
2023/05/06 11:59:38;;;;;;;1.40;0.80;;;24.00;49.80;;;;;;5036812;28;20025;-66
2023/05/06 12:02:09;;;;;;;2.40;0.80;;;24.00;49.60;;;;;;5041169;28;20361;-67
2023/05/06 12:04:45;;;;;;;1.15;0.70;;;24.00;49.40;;;;;;5040516;28;20025;-67
2023/05/06 12:07:12;;;;;;;1.10;0.80;;;24.00;49.30;;;;;;5039722;28;20460;-66
2023/05/06 12:09:47;;;;;;;1.88;0.80;;;24.00;49.00;;;;;;5040355;28;20504;-66
2023/05/06 12:12:23;;;;;;;1.00;0.60;;;24.00;49.00;;;;;;5035384;28;20033;-66
2023/05/06 12:14:51;;;;;;;0.98;0.70;;;24.00;48.60;;;;;;5037496;28;20099;-67
2023/05/06 12:17:17;;;;;;;1.33;0.80;;;24.00;48.40;;;;;;5038193;28;20040;-67
2023/05/06 12:19:42;;;;;;;0.90;0.65;;;24.10;48.80;;;;;;5038547;28;20361;-67
2023/05/06 12:22:20;;;;;;;0.82;0.70;;;24.00;48.20;;;;;;5039685;28;20034;-66
2023/05/06 12:24:47;;;;;;;1.25;0.80;;;24.00;48.10;;;;;;5041296;28;20446;-67
2023/05/06 12:27:13;;;;;;;1.13;0.63;;;24.00;47.90;;;;;;5039965;28;20130;-67
2023/05/06 12:29:39;;;;;;;0.80;0.60;;;24.00;47.30;;;;;;5038837;28;20124;-67
2023/05/06 12:32:10;;;;;;;1.30;0.70;;;24.00;46.90;;;;;;5040281;28;20110;-67
2023/05/06 12:34:40;;;;;;;0.70;0.60;;;24.00;46.40;;;;;;5038527;28;20445;-67
2023/05/06 12:37:07;;;;;;;;;;;24.00;46.90;;;;;;5041436;28;20044;-67
2023/05/06 12:39:37;;;;;;;0.50;0.50;;;24.00;47.00;;;;;;5042216;28;19912;-67
2023/05/06 12:42:03;;;;;;;1.10;0.60;;;24.00;47.20;;;;;;5038111;28;20044;-67
2023/05/06 12:44:37;;;;;;;1.45;0.77;;;24.00;47.30;;;;;;5038831;28;20453;-67
2023/05/06 12:47:08;;;;;;;0.90;0.60;;;24.00;47.30;;;;;;5037419;28;20060;-67